Time;durP1;ratioP1;P1;durP2;ratioP2;P2;SDS_P1;SDS_P2;PMS_P1;PMS_P2;Temp;Humidity;BMP_temperature;BMP_pressure;BME280_temperature;BME280_humidity;BME280_pressure;Samples;Min_cycle;Max_cycle;Signal;HPM_P1;HPM_P2
2020/12/03 00:00:29;;;;;;;14.38;5.68;;;20.00;40.00;;;;;;1040748;28;20032;-72
2020/12/03 00:01:05;;;;;;;11.82;5.47;;;20.00;40.30;;;;;;1040974;28;20022;-71
2020/12/03 00:01:38;;;;;;;17.27;5.70;;;20.00;40.30;;;;;;1040143;28;20049;-72
2020/12/03 00:02:16;;;;;;;13.70;5.82;;;19.90;40.40;;;;;;1040166;28;20081;-71
2020/12/03 00:02:47;;;;;;;12.55;5.65;;;19.90;40.70;;;;;;1037787;28;20022;-71
2020/12/03 00:03:45;;;;;;;16.27;6.10;;;19.90;40.60;;;;;;1037123;28;20470;-71
2020/12/03 00:04:16;;;;;;;14.13;5.72;;;19.90;40.70;;;;;;1039151;28;20466;-71
2020/12/03 00:04:48;;;;;;;13.60;5.45;;;19.90;40.90;;;;;;1037569;28;20029;-72
2020/12/03 00:05:19;;;;;;;11.13;5.40;;;19.80;41.00;;;;;;1039898;28;20026;-71
2020/12/03 00:06:00;;;;;;;11.95;5.47;;;19.80;40.90;;;;;;1036644;28;20022;-72
2020/12/03 00:06:40;;;;;;;16.40;6.03;;;19.80;41.00;;;;;;1040260;28;20022;-71
2020/12/03 00:07:12;;;;;;;13.18;5.60;;;19.80;41.00;;;;;;1038882;28;20038;-71
2020/12/03 00:07:43;;;;;;;11.90;5.63;;;19.70;41.60;;;;;;1037579;28;20022;-72
2020/12/03 00:08:15;;;;;;;12.57;5.43;;;19.70;40.90;;;;;;1039775;28;20025;-72
2020/12/03 00:08:59;;;;;;;15.68;6.40;;;19.70;41.00;;;;;;1040252;28;20022;-72
2020/12/03 00:09:30;;;;;;;15.20;5.90;;;19.60;41.00;;;;;;1038912;28;20452;-72
2020/12/03 00:10:02;;;;;;;16.35;6.00;;;19.60;41.00;;;;;;1040849;28;20459;-72
2020/12/03 00:10:34;;;;;;;17.17;6.05;;;19.60;41.00;;;;;;1040918;28;20013;-72
2020/12/03 00:11:06;;;;;;;13.93;5.80;;;19.60;41.00;;;;;;1040838;28;20020;-72
2020/12/03 00:11:41;;;;;;;14.25;5.38;;;19.60;41.10;;;;;;1041116;28;20514;-72
2020/12/03 00:12:12;;;;;;;14.52;5.93;;;19.50;41.20;;;;;;1039211;28;20533;-71
2020/12/03 00:12:44;;;;;;;14.98;5.53;;;19.50;41.30;;;;;;1034768;28;20088;-72
2020/12/03 00:13:25;;;;;;;12.60;5.55;;;19.50;41.20;;;;;;1034874;28;20018;-73
2020/12/03 00:13:56;;;;;;;11.77;5.55;;;19.50;41.30;;;;;;1034149;28;20482;-73
2020/12/03 00:14:28;;;;;;;12.23;6.20;;;19.50;41.40;;;;;;1038609;28;20069;-73
2020/12/03 00:14:59;;;;;;;13.65;5.90;;;19.40;41.40;;;;;;1038654;28;20026;-74
2020/12/03 00:15:31;;;;;;;15.50;5.85;;;19.40;41.40;;;;;;1038397;28;20471;-73
2020/12/03 00:16:04;;;;;;;13.25;5.32;;;19.40;41.50;;;;;;1037436;28;20376;-73
2020/12/03 00:16:35;;;;;;;12.70;5.95;;;19.30;41.60;;;;;;1036984;28;20091;-73
2020/12/03 00:17:07;;;;;;;11.18;5.60;;;19.30;41.70;;;;;;1044162;28;20020;-70
2020/12/03 00:17:38;;;;;;;13.30;6.03;;;19.20;41.70;;;;;;1037233;28;20022;-72
2020/12/03 00:18:10;;;;;;;14.10;6.07;;;19.20;41.50;;;;;;1039377;28;20107;-73
2020/12/03 00:18:41;;;;;;;14.00;5.78;;;19.10;41.40;;;;;;1032964;28;20034;-72
2020/12/03 00:19:14;;;;;;;11.43;5.50;;;19.10;41.50;;;;;;1032825;28;20010;-72
2020/12/03 00:19:45;;;;;;;14.35;5.93;;;19.00;41.50;;;;;;1032478;28;20027;-73
2020/12/03 00:20:18;;;;;;;14.15;5.88;;;19.00;41.50;;;;;;1039460;28;20127;-73
2020/12/03 00:20:50;;;;;;;14.70;5.65;;;19.00;41.60;;;;;;1034223;28;20025;-72
2020/12/03 00:21:58;;;;;;;15.57;5.93;;;18.90;41.60;;;;;;1035844;28;20045;-72
2020/12/03 00:22:30;;;;;;;13.38;5.82;;;18.80;41.90;;;;;;1029338;28;20054;-72
2020/12/03 00:23:03;;;;;;;12.00;5.63;;;18.70;41.90;;;;;;1031912;28;20109;-72
2020/12/03 00:23:38;;;;;;;13.63;5.80;;;18.70;42.10;;;;;;1031502;28;20026;-72
2020/12/03 00:24:13;;;;;;;14.15;5.72;;;18.70;42.10;;;;;;1032326;28;20029;-72
2020/12/03 00:24:45;;;;;;;11.55;5.07;;;18.70;42.30;;;;;;1032020;28;20054;-72
2020/12/03 00:25:16;;;;;;;13.98;6.00;;;18.60;42.30;;;;;;1036502;28;20116;-70
2020/12/03 00:25:50;;;;;;;10.93;5.30;;;18.60;42.30;;;;;;1040768;28;20434;-70
2020/12/03 00:26:24;;;;;;;12.32;5.75;;;18.60;42.40;;;;;;1040777;28;20439;-70
2020/12/03 00:26:56;;;;;;;10.30;4.68;;;18.60;42.50;;;;;;1040645;28;20013;-70
2020/12/03 00:27:28;;;;;;;12.23;5.78;;;18.60;42.60;;;;;;1038001;28;20017;-70
2020/12/03 00:27:59;;;;;;;15.32;6.00;;;18.50;42.60;;;;;;1040844;28;20058;-70
2020/12/03 00:28:42;;;;;;;13.98;5.55;;;18.50;42.60;;;;;;1038102;28;20029;-70
2020/12/03 00:29:14;;;;;;;21.13;5.90;;;18.50;42.80;;;;;;1041018;28;20071;-71
2020/12/03 00:29:46;;;;;;;21.15;6.07;;;18.50;42.80;;;;;;1040451;28;20018;-73
2020/12/03 00:30:18;;;;;;;14.30;5.78;;;18.50;42.90;;;;;;1037408;28;20084;-72
2020/12/03 00:30:49;;;;;;;23.30;6.15;;;18.40;42.90;;;;;;1036587;28;20116;-72
2020/12/03 00:31:21;;;;;;;21.27;6.30;;;18.40;43.00;;;;;;1036579;28;20471;-72
2020/12/03 00:31:53;;;;;;;30.67;6.75;;;18.40;43.20;;;;;;1036743;28;20160;-72
2020/12/03 00:32:24;;;;;;;22.50;5.53;;;18.40;43.30;;;;;;1036892;28;20018;-72
2020/12/03 00:32:56;;;;;;;12.95;5.68;;;18.30;43.50;;;;;;1038632;28;20407;-72
2020/12/03 00:33:29;;;;;;;20.50;5.80;;;18.30;43.60;;;;;;1039733;28;20104;-71
2020/12/03 00:34:04;;;;;;;20.92;6.18;;;18.30;43.80;;;;;;1036515;28;20468;-71
2020/12/03 00:34:36;;;;;;;26.05;6.63;;;18.20;43.90;;;;;;1032673;28;20033;-74
2020/12/03 00:35:07;;;;;;;24.02;6.05;;;18.20;43.90;;;;;;1032652;28;20018;-73
2020/12/03 00:35:39;;;;;;;13.00;5.30;;;18.20;44.00;;;;;;1033890;28;20369;-72
2020/12/03 00:36:10;;;;;;;20.80;5.75;;;18.10;43.90;;;;;;1037041;28;20105;-72
2020/12/03 00:36:42;;;;;;;11.93;5.38;;;18.10;43.80;;;;;;1036988;28;20113;-72
2020/12/03 00:37:13;;;;;;;15.45;5.60;;;18.10;43.70;;;;;;1036979;28;20026;-72
2020/12/03 00:37:45;;;;;;;15.88;5.70;;;18.10;43.70;;;;;;1036713;28;20455;-72
2020/12/03 00:38:19;;;;;;;40.00;7.35;;;18.00;43.60;;;;;;1036629;28;20025;-73
2020/12/03 00:38:51;;;;;;;60.40;8.43;;;18.00;43.80;;;;;;1036675;28;20010;-72
2020/12/03 00:39:23;;;;;;;46.35;7.00;;;18.00;44.00;;;;;;1036865;28;20010;-72
2020/12/03 00:39:55;;;;;;;62.67;7.97;;;18.00;44.00;;;;;;1039890;28;20017;-73
2020/12/03 00:40:27;;;;;;;57.83;7.47;;;17.90;44.00;;;;;;1040107;28;20072;-72
2020/12/03 00:40:58;;;;;;;44.08;7.20;;;17.90;44.00;;;;;;1036892;28;20010;-73
2020/12/03 00:41:29;;;;;;;30.95;5.80;;;17.90;44.00;;;;;;1038782;28;20021;-73
2020/12/03 00:42:01;;;;;;;15.65;5.63;;;17.80;44.00;;;;;;1041027;28;20037;-72
2020/12/03 00:42:32;;;;;;;16.65;5.35;;;17.80;44.10;;;;;;1040405;28;20424;-72
2020/12/03 00:43:04;;;;;;;17.45;5.90;;;17.70;44.20;;;;;;1036993;28;20590;-72
2020/12/03 00:43:35;;;;;;;14.95;5.38;;;17.60;44.40;;;;;;1036743;28;20014;-71
2020/12/03 00:44:07;;;;;;;13.98;5.55;;;17.60;44.50;;;;;;1036734;28;20009;-71
2020/12/03 00:44:38;;;;;;;18.65;5.43;;;17.60;44.50;;;;;;1038600;28;20033;-71
2020/12/03 00:45:11;;;;;;;23.10;5.30;;;17.50;44.70;;;;;;1040930;28;20075;-73
2020/12/03 00:45:47;;;;;;;14.32;5.22;;;17.50;44.60;;;;;;1040518;28;20017;-70
2020/12/03 00:46:19;;;;;;;15.82;5.45;;;17.40;44.70;;;;;;1036592;28;20018;-70
2020/12/03 00:46:51;;;;;;;14.95;5.13;;;17.40;44.80;;;;;;1036607;28;20014;-70
2020/12/03 00:47:22;;;;;;;25.02;5.53;;;17.40;44.80;;;;;;1041539;28;20045;-69
2020/12/03 00:47:54;;;;;;;12.00;5.30;;;17.40;45.00;;;;;;1040053;28;20044;-70
2020/12/03 00:48:25;;;;;;;12.25;5.30;;;17.30;45.00;;;;;;1041756;28;20014;-69
2020/12/03 00:48:57;;;;;;;13.55;5.82;;;17.30;45.10;;;;;;1042630;28;20498;-70
2020/12/03 00:49:28;;;;;;;11.30;4.80;;;17.30;45.40;;;;;;1041566;28;20017;-70
2020/12/03 00:50:00;;;;;;;12.18;5.28;;;17.20;45.40;;;;;;1040925;28;20020;-70
2020/12/03 00:50:31;;;;;;;13.68;5.20;;;17.20;45.30;;;;;;1034972;28;20610;-70
2020/12/03 00:51:03;;;;;;;13.05;5.15;;;17.10;45.20;;;;;;1034416;28;20436;-70
2020/12/03 00:51:35;;;;;;;11.23;5.00;;;17.00;45.50;;;;;;1038546;28;20014;-70
2020/12/03 00:52:06;;;;;;;12.50;4.97;;;17.10;45.50;;;;;;1037974;28;20018;-70
2020/12/03 00:52:38;;;;;;;11.77;5.38;;;17.00;45.40;;;;;;1040392;28;20013;-71
2020/12/03 00:53:09;;;;;;;12.98;4.95;;;17.00;45.50;;;;;;1042046;28;20013;-72
2020/12/03 00:53:41;;;;;;;12.90;5.35;;;17.00;45.50;;;;;;1038545;28;20091;-72
2020/12/03 00:54:13;;;;;;;13.55;5.20;;;16.90;45.50;;;;;;1041307;28;20452;-73
2020/12/03 00:54:44;;;;;;;10.15;4.80;;;16.80;45.60;;;;;;1037470;28;20574;-71
2020/12/03 00:55:16;;;;;;;13.32;5.60;;;16.80;45.70;;;;;;1036044;28;20104;-72
2020/12/03 00:55:48;;;;;;;12.18;4.82;;;16.70;45.80;;;;;;1039880;28;20028;-72
2020/12/03 00:56:20;;;;;;;13.25;5.10;;;16.70;45.90;;;;;;1039470;28;20104;-73
2020/12/03 00:56:51;;;;;;;12.38;5.18;;;16.70;46.00;;;;;;1039863;28;20014;-73
2020/12/03 00:57:23;;;;;;;12.18;5.07;;;16.60;46.10;;;;;;1036950;28;20014;-73
2020/12/03 00:57:54;;;;;;;12.57;5.05;;;16.60;46.30;;;;;;1037841;28;20018;-73
2020/12/03 00:58:25;;;;;;;11.07;5.18;;;16.60;46.20;;;;;;1038624;28;20443;-72
2020/12/03 00:58:57;;;;;;;11.15;5.05;;;16.60;46.20;;;;;;1037023;28;20037;-72
2020/12/03 00:59:28;;;;;;;12.20;5.10;;;16.50;46.20;;;;;;1036509;28;20076;-72
2020/12/03 01:00:00;;;;;;;12.30;5.25;;;16.50;46.30;;;;;;1037907;28;20042;-72
2020/12/03 01:00:31;;;;;;;11.38;4.50;;;16.50;46.30;;;;;;1038495;28;20010;-73
2020/12/03 01:01:03;;;;;;;12.68;4.75;;;16.50;46.40;;;;;;1038670;28;20021;-72
2020/12/03 01:01:35;;;;;;;10.07;5.13;;;16.40;46.40;;;;;;1040862;28;20045;-72
2020/12/03 01:02:14;;;;;;;12.95;4.95;;;16.30;46.50;;;;;;1040682;28;20010;-72
2020/12/03 01:02:46;;;;;;;13.63;4.85;;;16.30;46.50;;;;;;1038294;28;20034;-72
2020/12/03 01:03:17;;;;;;;15.80;4.93;;;16.20;46.50;;;;;;1037113;28;20466;-72
2020/12/03 01:03:49;;;;;;;13.50;5.30;;;16.20;46.90;;;;;;1036758;28;20056;-73
2020/12/03 01:04:20;;;;;;;11.75;5.20;;;16.20;46.90;;;;;;1032482;28;20456;-73
2020/12/03 01:04:52;;;;;;;14.20;5.10;;;16.20;47.00;;;;;;1034422;28;20080;-73
2020/12/03 01:05:23;;;;;;;11.40;5.00;;;16.10;46.90;;;;;;1038088;28;20017;-73
2020/12/03 01:05:55;;;;;;;13.48;5.40;;;16.10;47.00;;;;;;1040510;28;20039;-72
2020/12/03 01:06:26;;;;;;;12.05;5.05;;;16.00;47.10;;;;;;1036610;28;20010;-73
2020/12/03 01:06:58;;;;;;;12.70;5.07;;;16.00;47.10;;;;;;1040155;28;20040;-74
2020/12/03 01:07:29;;;;;;;14.27;4.95;;;16.00;47.20;;;;;;1037603;28;20485;-73
2020/12/03 01:08:01;;;;;;;11.18;5.15;;;15.90;47.30;;;;;;1036960;28;20028;-72
2020/12/03 01:08:32;;;;;;;12.32;5.10;;;15.90;47.40;;;;;;1040020;28;20021;-73
2020/12/03 01:09:04;;;;;;;12.75;5.22;;;15.80;47.50;;;;;;1037761;28;20022;-73
2020/12/03 01:09:37;;;;;;;14.52;4.90;;;15.80;47.70;;;;;;1037876;28;20085;-72
2020/12/03 01:10:15;;;;;;;12.82;4.80;;;15.80;48.40;;;;;;1036029;28;20045;-72
2020/12/03 01:10:46;;;;;;;12.52;5.00;;;15.80;47.90;;;;;;1037595;28;20455;-72
2020/12/03 01:11:22;;;;;;;10.73;4.88;;;15.70;47.90;;;;;;1040631;28;20021;-72
2020/12/03 01:11:54;;;;;;;14.02;5.15;;;15.70;47.90;;;;;;1041383;28;20088;-73
2020/12/03 01:12:25;;;;;;;12.80;4.85;;;15.70;48.00;;;;;;1039782;28;20025;-73
2020/12/03 01:12:59;;;;;;;14.60;5.40;;;15.70;48.20;;;;;;1037288;28;20025;-73
2020/12/03 01:13:30;;;;;;;13.77;5.72;;;15.70;48.20;;;;;;1032579;28;20022;-73
2020/12/03 01:14:02;;;;;;;13.15;5.10;;;15.70;48.20;;;;;;1033055;28;20042;-73
2020/12/03 01:14:34;;;;;;;12.85;5.50;;;15.60;48.90;;;;;;1033928;28;20359;-73
2020/12/03 01:15:06;;;;;;;13.65;4.95;;;15.60;48.30;;;;;;1032955;28;20576;-73
2020/12/03 01:15:38;;;;;;;13.93;4.80;;;15.60;48.40;;;;;;1032277;28;20407;-73
2020/12/03 01:16:13;;;;;;;11.70;4.85;;;15.60;48.40;;;;;;1033159;28;20042;-73
2020/12/03 01:16:46;;;;;;;10.85;4.55;;;15.50;48.50;;;;;;1035023;28;20022;-73
2020/12/03 01:17:18;;;;;;;10.40;5.00;;;15.50;48.40;;;;;;1034683;28;20484;-73
2020/12/03 01:17:49;;;;;;;12.45;4.90;;;15.50;48.60;;;;;;1038894;28;20557;-73
2020/12/03 01:18:21;;;;;;;12.43;5.20;;;15.50;48.60;;;;;;1040594;28;20512;-73
2020/12/03 01:18:52;;;;;;;11.60;4.85;;;15.50;48.60;;;;;;1040532;28;20402;-73
2020/12/03 01:19:24;;;;;;;13.25;5.80;;;15.40;48.60;;;;;;1040583;28;20029;-73
2020/12/03 01:19:55;;;;;;;14.20;5.15;;;15.40;48.70;;;;;;1037716;28;20060;-72
2020/12/03 01:20:28;;;;;;;12.00;5.05;;;15.40;48.80;;;;;;1036275;28;20053;-73
2020/12/03 01:21:00;;;;;;;11.77;4.57;;;15.30;48.90;;;;;;1041149;28;20443;-73
2020/12/03 01:21:31;;;;;;;12.88;5.15;;;15.30;49.00;;;;;;1036610;28;20137;-72
2020/12/03 01:22:03;;;;;;;15.35;5.05;;;15.30;49.10;;;;;;1036473;28;20053;-72
2020/12/03 01:22:36;;;;;;;13.43;5.10;;;15.30;49.20;;;;;;1039119;28;20016;-72
2020/12/03 01:23:08;;;;;;;12.35;4.80;;;15.20;49.10;;;;;;1038249;28;20013;-72
2020/12/03 01:23:40;;;;;;;11.40;5.28;;;15.20;49.30;;;;;;1038438;28;20017;-72
2020/12/03 01:24:11;;;;;;;18.48;5.72;;;15.10;49.30;;;;;;1037118;28;20022;-72
2020/12/03 01:24:43;;;;;;;10.02;4.68;;;15.10;49.50;;;;;;1033503;28;20022;-72
2020/12/03 01:25:18;;;;;;;14.05;5.18;;;15.10;49.60;;;;;;1036398;28;20010;-72
2020/12/03 01:25:50;;;;;;;15.23;5.38;;;15.00;49.70;;;;;;1036582;28;20014;-73
2020/12/03 01:26:21;;;;;;;13.23;4.72;;;15.00;49.80;;;;;;1038139;28;20018;-73
2020/12/03 01:26:53;;;;;;;13.15;5.10;;;15.00;49.80;;;;;;1039555;28;20014;-73
2020/12/03 01:27:24;;;;;;;13.90;4.88;;;15.00;50.00;;;;;;1037270;28;20521;-73
2020/12/03 01:27:55;;;;;;;16.52;5.00;;;15.00;50.00;;;;;;1037439;28;20448;-73
2020/12/03 01:28:27;;;;;;;10.05;4.90;;;14.90;50.00;;;;;;1039928;28;20010;-73
2020/12/03 01:28:59;;;;;;;12.18;5.18;;;14.90;50.00;;;;;;1040759;28;20398;-73
2020/12/03 01:29:30;;;;;;;13.95;4.95;;;14.90;50.20;;;;;;1037815;28;20021;-72
2020/12/03 01:30:07;;;;;;;12.52;4.80;;;14.80;50.20;;;;;;1038358;28;20026;-74
2020/12/03 01:30:39;;;;;;;12.60;4.80;;;14.80;50.30;;;;;;1038966;28;20036;-73
2020/12/03 01:31:11;;;;;;;12.95;5.22;;;14.80;50.40;;;;;;1038712;28;20006;-73
2020/12/03 01:31:42;;;;;;;13.75;5.18;;;14.80;50.40;;;;;;1041175;28;20014;-73
2020/12/03 01:32:14;;;;;;;12.77;5.22;;;14.80;50.40;;;;;;1039818;28;20486;-73
2020/12/03 01:32:46;;;;;;;11.63;4.75;;;14.80;50.50;;;;;;1041931;28;20443;-72
2020/12/03 01:33:17;;;;;;;11.32;4.32;;;14.70;50.40;;;;;;1042525;28;20023;-73
2020/12/03 01:33:48;;;;;;;12.38;4.53;;;14.70;50.40;;;;;;1042164;28;20018;-72
2020/12/03 01:34:20;;;;;;;12.23;5.00;;;14.70;50.30;;;;;;1040416;28;20108;-73
2020/12/03 01:34:52;;;;;;;10.95;4.82;;;14.70;50.40;;;;;;1035087;28;20017;-73
2020/12/03 01:35:23;;;;;;;14.88;5.00;;;14.70;50.50;;;;;;1031180;28;20102;-73
2020/12/03 01:35:55;;;;;;;13.63;4.90;;;14.70;50.50;;;;;;1031636;28;20022;-73
2020/12/03 01:36:26;;;;;;;13.50;4.95;;;14.60;50.50;;;;;;1034090;28;20097;-73
2020/12/03 01:36:58;;;;;;;13.70;5.07;;;14.70;50.60;;;;;;1037436;28;20018;-74
2020/12/03 01:37:29;;;;;;;10.52;4.68;;;14.60;50.60;;;;;;1039106;28;20014;-73
2020/12/03 01:38:01;;;;;;;10.65;4.78;;;14.60;50.60;;;;;;1036751;28;20025;-73
2020/12/03 01:38:32;;;;;;;13.95;5.10;;;14.60;50.60;;;;;;1036668;28;20014;-73
2020/12/03 01:39:05;;;;;;;12.20;4.60;;;14.60;50.80;;;;;;1037772;28;20022;-73
2020/12/03 01:39:36;;;;;;;15.60;5.32;;;14.60;50.90;;;;;;1040280;28;20021;-72
2020/12/03 01:40:13;;;;;;;11.45;4.80;;;14.60;51.00;;;;;;1037797;28;20044;-72
2020/12/03 01:40:50;;;;;;;14.63;5.00;;;14.60;50.90;;;;;;1039848;28;20100;-72
2020/12/03 01:41:21;;;;;;;11.45;4.82;;;14.60;50.90;;;;;;1036187;28;20032;-73
2020/12/03 01:41:52;;;;;;;10.40;4.70;;;14.60;50.80;;;;;;1030608;28;20368;-72
2020/12/03 01:42:24;;;;;;;10.13;4.70;;;14.50;50.80;;;;;;1030339;28;20019;-72
2020/12/03 01:42:55;;;;;;;11.27;4.90;;;14.50;50.80;;;;;;1036476;28;20437;-72
2020/12/03 01:43:27;;;;;;;14.70;4.85;;;14.50;50.90;;;;;;1035442;28;20017;-72
2020/12/03 01:43:58;;;;;;;13.18;4.90;;;14.50;51.00;;;;;;1033439;28;20026;-72
2020/12/03 01:44:46;;;;;;;15.65;4.95;;;14.50;51.10;;;;;;1036499;28;20026;-72
2020/12/03 01:45:54;;;;;;;12.35;4.90;;;14.50;51.10;;;;;;1034810;28;20486;-72
2020/12/03 01:46:25;;;;;;;14.27;4.90;;;14.50;51.10;;;;;;1035738;28;20026;-72
2020/12/03 01:46:57;;;;;;;13.88;4.60;;;14.50;51.20;;;;;;1034357;28;20019;-72
2020/12/03 01:47:33;;;;;;;12.93;5.15;;;14.40;51.20;;;;;;1030949;28;20014;-72
2020/12/03 01:48:04;;;;;;;13.55;5.00;;;14.40;51.80;;;;;;1030928;28;20473;-72
2020/12/03 01:48:39;;;;;;;14.70;5.05;;;14.40;51.10;;;;;;1033536;28;20015;-73
2020/12/03 01:49:23;;;;;;;11.88;5.20;;;14.40;51.20;;;;;;1036711;28;20076;-72
2020/12/03 01:49:55;;;;;;;13.38;5.00;;;14.40;51.20;;;;;;1041017;28;20044;-73
2020/12/03 01:50:27;;;;;;;13.05;4.85;;;14.40;51.10;;;;;;1037581;28;20032;-73
2020/12/03 01:51:00;;;;;;;12.93;4.57;;;14.40;51.10;;;;;;1037844;28;20061;-72
2020/12/03 01:51:39;;;;;;;11.95;4.72;;;14.40;51.10;;;;;;1039188;28;21320;-72
2020/12/03 01:52:10;;;;;;;15.07;5.18;;;14.40;51.10;;;;;;1038270;28;20133;-72
2020/12/03 01:52:42;;;;;;;10.48;4.55;;;14.40;51.20;;;;;;1040365;28;20014;-72
2020/12/03 01:53:16;;;;;;;11.70;5.15;;;14.30;51.20;;;;;;1036941;28;20014;-72
2020/12/03 01:53:48;;;;;;;13.00;5.22;;;14.30;51.20;;;;;;1035828;28;20026;-73
2020/12/03 01:54:19;;;;;;;10.95;4.63;;;14.30;51.30;;;;;;1032858;28;20018;-72
2020/12/03 01:54:51;;;;;;;11.35;4.65;;;14.30;51.30;;;;;;1037757;28;20022;-72
2020/12/03 01:55:23;;;;;;;10.32;4.72;;;14.30;51.40;;;;;;1036729;28;20022;-72
2020/12/03 01:55:55;;;;;;;13.30;4.88;;;14.30;51.20;;;;;;1036879;28;20092;-72
2020/12/03 01:56:36;;;;;;;11.68;5.22;;;14.30;51.10;;;;;;1035336;28;20017;-72
2020/12/03 01:57:10;;;;;;;11.13;4.85;;;14.30;51.20;;;;;;1035721;28;20025;-73
2020/12/03 01:57:53;;;;;;;10.50;4.43;;;14.30;51.40;;;;;;1036172;28;20353;-73
2020/12/03 01:58:33;;;;;;;14.73;4.75;;;14.30;51.40;;;;;;1037370;28;20029;-72
2020/12/03 01:59:05;;;;;;;14.10;5.05;;;14.30;51.30;;;;;;1040527;28;20343;-73
2020/12/03 01:59:44;;;;;;;13.05;5.15;;;14.30;51.40;;;;;;1038245;28;20097;-73
2020/12/03 02:00:18;;;;;;;11.43;4.85;;;14.30;51.50;;;;;;1038695;28;20512;-72
2020/12/03 02:00:50;;;;;;;10.93;4.80;;;14.30;51.50;;;;;;1036730;28;20333;-72
2020/12/03 02:01:22;;;;;;;13.35;5.10;;;14.30;51.40;;;;;;1038354;28;20417;-72
2020/12/03 02:01:55;;;;;;;10.80;4.97;;;14.30;51.60;;;;;;1036945;28;20014;-72
2020/12/03 02:02:27;;;;;;;10.50;4.55;;;14.30;51.60;;;;;;1036788;28;20053;-72
2020/12/03 02:02:58;;;;;;;11.80;5.10;;;14.30;52.00;;;;;;1037035;28;20021;-73
2020/12/03 02:03:30;;;;;;;13.85;4.90;;;14.30;51.30;;;;;;1039791;28;20063;-73
2020/12/03 02:04:01;;;;;;;13.50;4.93;;;14.30;51.30;;;;;;1037811;28;20402;-72
2020/12/03 02:04:33;;;;;;;12.93;5.20;;;14.30;51.30;;;;;;1037545;28;20045;-72
2020/12/03 02:05:11;;;;;;;11.35;5.28;;;14.30;51.30;;;;;;1037701;28;20116;-72
2020/12/03 02:05:42;;;;;;;15.18;5.18;;;14.30;51.40;;;;;;1036949;28;20447;-72
2020/12/03 02:06:41;;;;;;;11.52;4.88;;;14.30;51.30;;;;;;1033795;28;20021;-73
2020/12/03 02:07:13;;;;;;;10.70;4.65;;;14.30;51.20;;;;;;1033923;28;20193;-73
2020/12/03 02:07:46;;;;;;;9.68;4.47;;;14.30;51.30;;;;;;1035991;28;20455;-72
2020/12/03 02:08:17;;;;;;;16.75;5.55;;;14.20;51.30;;;;;;1035647;28;20010;-72
2020/12/03 02:08:49;;;;;;;11.27;4.70;;;14.30;51.40;;;;;;1036077;28;20395;-72
2020/12/03 02:09:20;;;;;;;10.35;4.82;;;14.30;51.30;;;;;;1030153;28;20037;-72
2020/12/03 02:09:52;;;;;;;13.15;4.72;;;14.30;51.30;;;;;;1032609;28;20018;-72
2020/12/03 02:10:25;;;;;;;11.50;4.88;;;14.30;51.30;;;;;;1036567;28;20052;-73
2020/12/03 02:10:57;;;;;;;10.60;4.55;;;14.30;51.30;;;;;;1039120;28;20014;-73
2020/12/03 02:11:28;;;;;;;10.73;4.47;;;14.30;51.20;;;;;;1040068;28;20460;-72
2020/12/03 02:12:00;;;;;;;9.68;4.57;;;14.40;51.00;;;;;;1034394;28;20026;-72
2020/12/03 02:12:31;;;;;;;11.93;5.10;;;14.40;50.80;;;;;;1034208;28;20123;-72
2020/12/03 02:13:03;;;;;;;12.40;4.78;;;14.40;50.80;;;;;;1034752;28;20021;-72
2020/12/03 02:13:34;;;;;;;12.13;4.53;;;14.40;50.90;;;;;;1037391;28;20440;-72
2020/12/03 02:14:09;;;;;;;9.48;4.25;;;14.40;50.80;;;;;;1036317;28;20455;-73
2020/12/03 02:14:40;;;;;;;11.40;4.90;;;14.40;50.50;;;;;;1040015;28;20502;-72
2020/12/03 02:15:14;;;;;;;11.23;4.63;;;14.40;50.70;;;;;;1035039;28;20014;-72
2020/12/03 02:15:45;;;;;;;12.63;4.95;;;14.40;50.90;;;;;;1035187;28;20026;-72
2020/12/03 02:16:17;;;;;;;9.23;4.55;;;14.40;50.90;;;;;;1037045;28;20037;-72
2020/12/03 02:16:48;;;;;;;12.75;4.80;;;14.30;50.90;;;;;;1038663;28;20467;-73
2020/12/03 02:17:20;;;;;;;10.02;4.88;;;14.30;50.90;;;;;;1038267;28;20026;-73
2020/12/03 02:17:51;;;;;;;11.43;5.15;;;14.30;50.90;;;;;;1039083;28;20552;-73
2020/12/03 02:18:23;;;;;;;11.23;4.97;;;14.20;50.90;;;;;;1037195;28;20013;-73
2020/12/03 02:18:54;;;;;;;12.60;4.57;;;14.20;50.90;;;;;;1040145;28;20091;-73
2020/12/03 02:19:32;;;;;;;10.48;5.07;;;14.10;50.90;;;;;;1038731;28;20018;-73
2020/12/03 02:20:10;;;;;;;11.90;4.80;;;14.10;51.00;;;;;;1037337;28;20018;-73
2020/12/03 02:20:42;;;;;;;9.57;4.85;;;14.10;51.10;;;;;;1036151;28;20018;-73
2020/12/03 02:21:15;;;;;;;11.15;4.97;;;14.10;51.20;;;;;;1035697;28;20122;-73
2020/12/03 02:21:59;;;;;;;13.80;5.18;;;14.00;51.20;;;;;;1035279;28;20018;-73
2020/12/03 02:22:30;;;;;;;11.40;5.03;;;14.00;51.30;;;;;;1034631;28;20026;-73
2020/12/03 02:23:13;;;;;;;12.57;4.82;;;13.90;51.40;;;;;;1036056;28;20014;-73
2020/12/03 02:23:45;;;;;;;12.57;5.10;;;13.90;51.60;;;;;;1036328;28;20046;-73
2020/12/03 02:24:17;;;;;;;15.85;5.20;;;13.90;51.60;;;;;;1038527;28;20022;-73
2020/12/03 02:24:48;;;;;;;14.63;5.07;;;13.90;51.80;;;;;;1039088;28;20463;-73
2020/12/03 02:25:20;;;;;;;10.00;4.90;;;13.90;51.80;;;;;;1037922;28;20018;-73
2020/12/03 02:25:51;;;;;;;11.80;4.95;;;13.90;51.80;;;;;;1036254;28;20010;-74
2020/12/03 02:26:23;;;;;;;13.27;5.03;;;13.80;51.80;;;;;;1036885;28;20518;-73
2020/12/03 02:26:54;;;;;;;12.55;5.53;;;13.80;51.80;;;;;;1044514;28;20013;-73
2020/12/03 02:27:26;;;;;;;12.00;4.90;;;13.80;51.80;;;;;;1041143;28;20067;-73
2020/12/03 02:27:58;;;;;;;14.27;5.28;;;13.80;51.90;;;;;;1039373;28;20010;-73
2020/12/03 02:28:29;;;;;;;10.77;4.93;;;13.80;51.80;;;;;;1036356;28;20009;-72
2020/12/03 02:29:00;;;;;;;14.30;5.55;;;13.80;51.80;;;;;;1036521;28;20017;-72
2020/12/03 02:29:32;;;;;;;11.27;4.95;;;13.80;51.90;;;;;;1033427;28;20697;-72
2020/12/03 02:30:09;;;;;;;11.23;5.03;;;13.80;51.80;;;;;;1038392;28;20049;-72
2020/12/03 02:30:40;;;;;;;14.23;5.10;;;13.70;51.80;;;;;;1036344;28;20341;-73
2020/12/03 02:31:12;;;;;;;12.73;4.90;;;13.80;51.80;;;;;;1036397;28;20036;-72
2020/12/03 02:31:44;;;;;;;12.93;5.30;;;13.70;51.70;;;;;;1035516;28;20026;-73
2020/12/03 02:32:16;;;;;;;10.98;5.00;;;13.70;51.90;;;;;;1033183;28;20525;-73
2020/12/03 02:32:48;;;;;;;11.80;5.28;;;13.80;52.00;;;;;;1037082;28;20021;-73
2020/12/03 02:33:19;;;;;;;11.52;5.20;;;13.80;51.90;;;;;;1036533;28;20093;-73
2020/12/03 02:33:50;;;;;;;11.80;5.00;;;13.80;51.60;;;;;;1036188;28;20100;-73
2020/12/03 02:34:22;;;;;;;13.02;5.22;;;13.70;51.60;;;;;;1037795;28;20024;-73
2020/12/03 02:34:54;;;;;;;11.80;5.00;;;13.70;51.50;;;;;;1037850;28;20503;-73
2020/12/03 02:35:25;;;;;;;12.52;5.00;;;13.70;51.60;;;;;;1038911;28;20043;-72
2020/12/03 02:35:57;;;;;;;12.63;5.00;;;13.70;51.60;;;;;;1032687;28;20050;-72
2020/12/03 02:36:28;;;;;;;12.18;5.25;;;13.70;51.40;;;;;;1036051;28;20068;-72
2020/12/03 02:37:02;;;;;;;12.27;5.00;;;13.70;51.40;;;;;;1035946;28;20088;-73
2020/12/03 02:37:35;;;;;;;9.52;5.03;;;13.70;51.40;;;;;;1039327;28;20013;-72
2020/12/03 02:38:06;;;;;;;11.23;4.93;;;13.70;51.40;;;;;;1038469;28;20025;-72
2020/12/03 02:38:38;;;;;;;11.90;5.30;;;13.70;51.40;;;;;;1040339;28;20390;-72
2020/12/03 02:39:10;;;;;;;10.23;4.80;;;13.70;51.40;;;;;;1040626;28;20104;-72
2020/12/03 02:39:41;;;;;;;9.65;4.95;;;13.70;51.30;;;;;;1037500;28;20456;-72
2020/12/03 02:40:13;;;;;;;10.55;5.10;;;13.60;51.20;;;;;;1036757;28;20025;-73
2020/12/03 02:40:44;;;;;;;11.77;5.30;;;13.70;51.20;;;;;;1036505;28;20041;-73
2020/12/03 02:41:16;;;;;;;10.23;4.88;;;13.60;51.20;;;;;;1037790;28;20350;-73
2020/12/03 02:41:48;;;;;;;13.73;5.05;;;13.70;51.20;;;;;;1040008;28;20010;-73
2020/12/03 02:42:20;;;;;;;13.25;4.88;;;13.60;51.20;;;;;;1038739;28;20026;-73
2020/12/03 02:42:51;;;;;;;10.20;4.68;;;13.70;51.40;;;;;;1039829;28;20021;-73
2020/12/03 02:43:23;;;;;;;12.45;5.40;;;13.60;51.90;;;;;;1044657;28;20028;-73
2020/12/03 02:43:55;;;;;;;12.77;5.03;;;13.60;51.30;;;;;;1039779;28;20014;-73
2020/12/03 02:44:27;;;;;;;10.00;5.03;;;13.60;51.30;;;;;;1036454;28;20061;-73
2020/12/03 02:44:58;;;;;;;9.35;4.90;;;13.60;51.30;;;;;;1036290;28;20014;-73
2020/12/03 02:45:30;;;;;;;9.27;4.85;;;13.60;51.30;;;;;;1036023;28;20022;-72
2020/12/03 02:46:02;;;;;;;11.85;5.47;;;13.60;51.30;;;;;;1032135;28;20010;-72
2020/12/03 02:46:33;;;;;;;11.52;4.75;;;13.60;51.30;;;;;;1035100;28;20022;-72
2020/12/03 02:47:05;;;;;;;10.38;5.00;;;13.60;51.20;;;;;;1033005;28;20018;-72
2020/12/03 02:47:37;;;;;;;10.57;4.88;;;13.60;51.30;;;;;;1034954;28;20018;-72
2020/12/03 02:48:08;;;;;;;13.63;5.05;;;13.60;51.20;;;;;;1034595;28;20022;-72
2020/12/03 02:48:39;;;;;;;12.85;5.22;;;13.50;51.20;;;;;;1038337;28;20082;-72
2020/12/03 02:49:11;;;;;;;13.45;5.38;;;13.50;51.20;;;;;;1040552;28;20009;-73
2020/12/03 02:49:44;;;;;;;12.00;5.07;;;13.50;51.10;;;;;;1038684;28;20072;-73